Time;durP1;ratioP1;P1;durP2;ratioP2;P2;SDS_P1;SDS_P2;PMS_P1;PMS_P2;Temp;Humidity;BMP_temperature;BMP_pressure;BME280_temperature;BME280_humidity;BME280_pressure;Samples;Min_cycle;Max_cycle;Signal;HPM_P1;HPM_P2
2023/08/21 00:04:44;;;;;;;7.78;6.97;;;;;;;;;;10258645;28;20422;-69
2023/08/21 00:09:41;;;;;;;13.98;7.10;;;;;;;;;;10247599;28;20073;-70
2023/08/21 00:14:37;;;;;;;11.52;7.65;;;;;;;;;;10254807;28;20095;-69
2023/08/21 00:19:33;;;;;;;9.05;6.70;;;;;;;;;;10273834;28;20056;-70
2023/08/21 00:24:30;;;;;;;11.52;6.93;;;;;;;;;;10275465;28;20057;-69
2023/08/21 00:29:27;;;;;;;10.60;7.32;;;;;;;;;;10262773;28;20527;-69
2023/08/21 00:34:23;;;;;;;7.45;6.50;;;;;;;;;;10259049;28;20053;-69
2023/08/21 00:39:19;;;;;;;13.85;7.55;;;;;;;;;;10263966;28;20099;-69
2023/08/21 00:44:15;;;;;;;11.48;7.18;;;;;;;;;;10261113;28;20542;-70
2023/08/21 00:49:12;;;;;;;9.75;7.35;;;;;;;;;;10261877;28;20743;-69
2023/08/21 00:54:08;;;;;;;10.90;8.13;;;;;;;;;;10352238;22;20068;-69
2023/08/21 00:59:04;;;;;;;8.80;7.85;;;;;;;;;;10253275;28;20044;-69
2023/08/21 01:09:12;;;;;;;13.80;8.13;;;;;;;;;;10858036;23;20061;-71
2023/08/21 01:14:21;;;;;;;12.05;8.15;;;;;;;;;;10263035;28;20087;-70
2023/08/21 01:19:38;;;;;;;10.27;8.02;;;;;;;;;;10237198;23;20085;-70
2023/08/21 01:24:34;;;;;;;11.80;8.18;;;;;;;;;;10214920;28;20465;-70
2023/08/21 01:29:31;;;;;;;11.95;9.25;;;;;;;;;;10181590;28;20519;-70
2023/08/21 01:34:28;;;;;;;11.60;8.20;;;;;;;;;;10173945;28;20122;-69
2023/08/21 01:39:25;;;;;;;10.13;7.88;;;;;;;;;;10235775;23;20101;-69
2023/08/21 01:44:21;;;;;;;13.70;8.25;;;;;;;;;;10262999;28;20514;-70
2023/08/21 01:49:19;;;;;;;12.82;9.07;;;;;;;;;;10273034;23;20061;-70
2023/08/21 01:54:15;;;;;;;15.13;9.93;;;;;;;;;;10262581;28;20239;-70
2023/08/21 01:59:11;;;;;;;14.93;9.65;;;;;;;;;;10224286;28;20490;-70
2023/08/21 02:04:07;;;;;;;13.70;10.10;;;;;;;;;;10220763;28;20049;-72
2023/08/21 02:09:04;;;;;;;16.58;9.38;;;;;;;;;;10229311;28;20418;-71
2023/08/21 02:14:00;;;;;;;11.30;9.27;;;;;;;;;;10226611;28;20403;-70
2023/08/21 02:18:57;;;;;;;15.88;10.07;;;;;;;;;;10215054;28;20042;-71
2023/08/21 02:23:53;;;;;;;10.63;9.63;;;;;;;;;;10218141;28;20519;-70
2023/08/21 02:28:49;;;;;;;15.23;11.50;;;;;;;;;;10209998;28;20510;-68
2023/08/21 02:33:46;;;;;;;15.70;10.25;;;;;;;;;;10224880;28;20413;-68
2023/08/21 02:38:42;;;;;;;16.50;9.82;;;;;;;;;;10222258;28;20442;-68
2023/08/21 02:43:38;;;;;;;13.88;10.63;;;;;;;;;;10224190;28;20069;-70
2023/08/21 02:48:34;;;;;;;15.20;10.55;;;;;;;;;;10226576;28;20388;-72
2023/08/21 02:53:31;;;;;;;12.05;9.75;;;;;;;;;;10223616;28;20041;-72
2023/08/21 02:58:27;;;;;;;13.02;10.63;;;;;;;;;;10216238;28;20053;-71
2023/08/21 03:03:24;;;;;;;12.55;9.85;;;;;;;;;;10218028;28;20103;-71
2023/08/21 03:08:20;;;;;;;13.75;9.40;;;;;;;;;;10223570;28;20399;-71
2023/08/21 03:13:16;;;;;;;11.50;9.23;;;;;;;;;;10220488;28;20103;-69
2023/08/21 03:18:15;;;;;;;10.82;9.07;;;;;;;;;;10228333;28;20049;-69
2023/08/21 03:23:12;;;;;;;12.52;9.38;;;;;;;;;;10217071;28;20577;-69
2023/08/21 03:28:08;;;;;;;10.18;9.15;;;;;;;;;;10210476;28;20672;-68
2023/08/21 03:33:05;;;;;;;11.25;9.52;;;;;;;;;;10216890;28;20507;-71
2023/08/21 03:38:04;;;;;;;12.32;10.18;;;;;;;;;;10274307;22;20473;-71
2023/08/21 03:43:01;;;;;;;12.43;9.38;;;;;;;;;;10250270;28;20132;-70
2023/08/21 03:47:57;;;;;;;11.02;9.43;;;;;;;;;;10259201;28;20069;-70
2023/08/21 03:52:53;;;;;;;18.02;10.20;;;;;;;;;;10243190;28;20045;-71
2023/08/21 03:57:49;;;;;;;17.35;10.55;;;;;;;;;;10247897;28;20521;-71
2023/08/21 04:02:46;;;;;;;11.48;10.40;;;;;;;;;;10241964;28;20450;-71
2023/08/21 04:07:42;;;;;;;12.48;11.18;;;;;;;;;;10246900;28;20140;-71
2023/08/21 04:12:38;;;;;;;13.30;10.90;;;;;;;;;;10251150;28;20095;-70
2023/08/21 04:17:35;;;;;;;14.57;11.45;;;;;;;;;;10252155;28;20722;-68
2023/08/21 04:22:31;;;;;;;14.18;11.60;;;;;;;;;;10245596;28;20053;-71
2023/08/21 04:27:28;;;;;;;13.02;11.77;;;;;;;;;;10257788;28;20045;-71
2023/08/21 04:32:24;;;;;;;14.30;10.25;;;;;;;;;;10248419;28;20092;-70
2023/08/21 04:37:50;;;;;;;17.80;10.93;;;;;;;;;;10321304;22;20063;-74
2023/08/21 04:43:07;;;;;;;14.48;11.18;;;;;;;;;;10254648;28;20049;-72
2023/08/21 04:48:04;;;;;;;12.15;10.10;;;;;;;;;;10254913;28;20503;-72
2023/08/21 04:53:00;;;;;;;19.58;12.10;;;;;;;;;;10243215;28;20061;-72
2023/08/21 04:57:57;;;;;;;18.15;13.57;;;;;;;;;;10244223;28;20055;-71
2023/08/21 05:02:53;;;;;;;14.27;12.23;;;;;;;;;;10250447;28;20111;-71
2023/08/21 05:07:50;;;;;;;12.13;10.55;;;;;;;;;;10252667;28;20076;-71
2023/08/21 05:12:46;;;;;;;14.18;11.35;;;;;;;;;;10246637;28;20538;-71
2023/08/21 05:17:43;;;;;;;12.77;11.07;;;;;;;;;;10258968;28;20076;-71
2023/08/21 05:22:39;;;;;;;13.20;11.80;;;;;;;;;;10248237;28;20053;-71
2023/08/21 05:27:36;;;;;;;16.65;11.65;;;;;;;;;;10263175;28;20103;-72
2023/08/21 05:32:32;;;;;;;16.83;11.77;;;;;;;;;;10249892;28;20104;-71
2023/08/21 05:48:19;;;;;;;13.10;10.95;;;;;;;;;;10206132;28;20053;-71
2023/08/21 05:53:15;;;;;;;13.25;10.57;;;;;;;;;;10179137;28;20120;-71
2023/08/21 06:03:53;;;;;;;14.93;10.18;;;;;;;;;;2431072;26;20049;-71
2023/08/21 06:08:50;;;;;;;13.55;9.88;;;;;;;;;;10231973;28;20427;-71
2023/08/21 06:13:47;;;;;;;14.27;9.52;;;;;;;;;;10234762;28;20049;-73
2023/08/21 06:18:43;;;;;;;19.42;9.38;;;;;;;;;;10246826;28;20186;-72
2023/08/21 06:23:39;;;;;;;11.23;8.18;;;;;;;;;;10246521;28;20045;-71
2023/08/21 06:28:57;;;;;;;;;;;;;;;;;;;;;
2023/08/21 06:34:18;;;;;;;9.82;8.00;;;;;;;;;;10208334;28;20431;-72
2023/08/21 06:39:14;;;;;;;14.25;9.30;;;;;;;;;;10348552;23;20466;-72
2023/08/21 06:44:11;;;;;;;10.48;8.27;;;;;;;;;;10222600;28;20076;-72
2023/08/21 06:49:07;;;;;;;12.43;7.70;;;;;;;;;;10185809;28;20042;-72
2023/08/21 06:54:03;;;;;;;10.05;7.88;;;;;;;;;;10182649;28;20077;-71
2023/08/21 07:05:50;;;;;;;10.60;6.80;;;;;;;;;;10236152;28;20536;-72
2023/08/21 07:10:47;;;;;;;;;;;;;;;;;;10302815;23;20068;-72
2023/08/21 07:15:46;;;;;;;13.23;6.65;;;;;;;;;;10256996;28;19921;-72
2023/08/21 07:20:42;;;;;;;7.65;6.15;;;;;;;;;;10251091;28;20045;-72
2023/08/21 07:25:39;;;;;;;13.02;7.07;;;;;;;;;;10257369;28;20049;-72
2023/08/21 07:30:36;;;;;;;12.10;6.78;;;;;;;;;;10268339;22;20071;-72
2023/08/21 07:35:33;;;;;;;7.57;6.80;;;;;;;;;;10252826;28;20065;-72
2023/08/21 07:40:29;;;;;;;7.18;6.15;;;;;;;;;;10261185;28;20049;-72
2023/08/21 07:45:25;;;;;;;7.35;6.43;;;;;;;;;;10252454;28;20057;-72
2023/08/21 07:50:43;;;;;;;8.52;6.25;;;;;;;;;;10379118;23;20056;-72
2023/08/21 07:55:41;;;;;;;12.65;6.85;;;;;;;;;;10258702;28;20079;-72
2023/08/21 08:00:38;;;;;;;12.70;6.50;;;;;;;;;;10249920;28;20146;-72
2023/08/21 08:05:35;;;;;;;7.75;6.97;;;;;;;;;;10239433;28;20184;-72
2023/08/21 08:10:31;;;;;;;10.63;7.43;;;;;;;;;;10517155;22;20473;-72
2023/08/21 08:15:30;;;;;;;7.90;7.10;;;;;;;;;;10253023;28;20079;-72
2023/08/21 08:20:26;;;;;;;9.77;6.50;;;;;;;;;;10265509;22;21267;-73
2023/08/21 08:25:23;;;;;;;9.35;6.70;;;;;;;;;;10261912;28;20507;-72
2023/08/21 08:30:19;;;;;;;10.88;6.28;;;;;;;;;;10225306;28;20081;-72
2023/08/21 08:35:15;;;;;;;9.20;7.22;;;;;;;;;;10211550;28;20053;-72
2023/08/21 08:40:11;;;;;;;10.30;6.68;;;;;;;;;;10219031;28;20046;-72
2023/08/21 08:45:08;;;;;;;7.90;6.40;;;;;;;;;;10216986;28;20495;-72
2023/08/21 08:56:26;;;;;;;10.05;6.50;;;;;;;;;;10110697;28;20057;-72
2023/08/21 09:01:22;;;;;;;6.40;5.90;;;;;;;;;;10216880;28;20049;-72
2023/08/21 09:11:32;;;;;;;6.78;6.18;;;;;;;;;;10527753;22;20049;-72
2023/08/21 09:16:29;;;;;;;6.10;5.55;;;;;;;;;;10258832;28;20553;-73
2023/08/21 09:21:27;;;;;;;6.70;6.05;;;;;;;;;;10221480;28;20614;-72
2023/08/21 09:31:32;;;;;;;7.72;6.25;;;;;;;;;;10322477;22;20077;-72
2023/08/21 09:36:29;;;;;;;6.32;5.70;;;;;;;;;;10257843;28;20057;-72
2023/08/21 09:41:26;;;;;;;6.22;5.72;;;;;;;;;;10254782;28;20457;-72
2023/08/21 09:46:25;;;;;;;5.75;5.25;;;;;;;;;;10264631;28;20052;-72
2023/08/21 09:51:22;;;;;;;8.40;6.07;;;;;;;;;;10258774;28;20076;-72
2023/08/21 10:01:33;;;;;;;6.57;5.88;;;;;;;;;;3160536;22;20072;-73
2023/08/21 10:06:29;;;;;;;6.93;6.32;;;;;;;;;;10252938;28;20054;-72
2023/08/21 10:11:26;;;;;;;6.88;6.22;;;;;;;;;;10248346;28;20080;-72
2023/08/21 10:16:22;;;;;;;9.02;5.82;;;;;;;;;;10231759;28;20055;-72
2023/08/21 10:21:19;;;;;;;6.78;6.18;;;;;;;;;;10250348;28;20045;-72
2023/08/21 10:26:19;;;;;;;8.68;6.00;;;;;;;;;;10247378;28;20049;-73
2023/08/21 10:31:28;;;;;;;7.10;6.10;;;;;;;;;;10247027;28;20049;-72
2023/08/21 10:37:00;;;;;;;6.80;6.20;;;;;;;;;;10286359;22;20024;-72
2023/08/21 10:42:01;;;;;;;6.70;6.00;;;;;;;;;;10162068;28;20141;-72
2023/08/21 10:47:13;;;;;;;7.20;6.50;;;;;;;;;;10256297;28;20049;-72
2023/08/21 10:52:09;;;;;;;7.85;6.00;;;;;;;;;;10217456;28;20045;-72
2023/08/21 10:57:23;;;;;;;6.32;5.40;;;;;;;;;;10349593;23;20087;-72
2023/08/21 11:02:27;;;;;;;7.20;5.88;;;;;;;;;;10249671;28;20107;-72
2023/08/21 11:13:04;;;;;;;7.90;6.07;;;;;;;;;;9891466;26;20625;-71
2023/08/21 11:18:02;;;;;;;6.67;6.10;;;;;;;;;;10229228;28;20081;-72
2023/08/21 11:23:02;;;;;;;7.10;5.78;;;;;;;;;;10241117;28;20056;-72
2023/08/21 11:27:59;;;;;;;6.95;6.18;;;;;;;;;;10245915;28;20411;-72
2023/08/21 11:33:05;;;;;;;8.05;5.65;;;;;;;;;;10236461;28;20053;-72
2023/08/21 11:38:02;;;;;;;7.68;6.13;;;;;;;;;;10244353;28;20045;-72
2023/08/21 11:43:02;;;;;;;6.00;5.50;;;;;;;;;;10245068;28;20045;-72
2023/08/21 11:53:13;;;;;;;6.25;5.65;;;;;;;;;;10186012;28;20080;-73
2023/08/21 11:59:17;;;;;;;6.32;5.70;;;;;;;;;;10216831;28;20061;-72
2023/08/21 12:05:08;;;;;;;7.05;5.35;;;;;;;;;;10014760;28;20055;-72
2023/08/21 12:10:38;;;;;;;6.45;5.28;;;;;;;;;;10225414;23;20072;-72
2023/08/21 12:15:58;;;;;;;6.00;5.40;;;;;;;;;;10106150;28;20102;-72
2023/08/21 12:20:54;;;;;;;6.20;5.60;;;;;;;;;;10184717;28;20042;-72
2023/08/21 12:25:51;;;;;;;6.85;6.00;;;;;;;;;;10184987;28;20144;-72
2023/08/21 12:30:47;;;;;;;6.57;5.93;;;;;;;;;;10282853;22;20044;-72
2023/08/21 12:35:44;;;;;;;7.15;6.65;;;;;;;;;;10262135;28;20144;-72
2023/08/21 12:40:40;;;;;;;6.72;5.60;;;;;;;;;;10258478;28;20167;-72
2023/08/21 12:45:37;;;;;;;6.28;5.68;;;;;;;;;;10234634;28;20114;-72
2023/08/21 12:51:03;;;;;;;7.18;5.85;;;;;;;;;;10431985;22;20058;-72
2023/08/21 13:01:37;;;;;;;;;;;;;;;;;;;;;
2023/08/21 13:07:02;;;;;;;6.68;5.80;;;;;;;;;;10041101;28;20407;-72
2023/08/21 13:12:04;;;;;;;7.13;6.15;;;;;;;;;;10151414;28;20550;-72
2023/08/21 13:22:06;;;;;;;5.80;5.20;;;;;;;;;;5724748;26;20041;-72
2023/08/21 13:32:07;;;;;;;7.32;5.72;;;;;;;;;;8957479;22;20041;-72
2023/08/21 13:37:04;;;;;;;9.98;8.55;;;;;;;;;;10258919;28;20509;-72
2023/08/21 13:42:00;;;;;;;6.05;5.55;;;;;;;;;;10250892;28;20052;-72
2023/08/21 13:46:56;;;;;;;6.93;5.70;;;;;;;;;;10255100;28;20056;-72
2023/08/21 13:51:53;;;;;;;6.30;5.80;;;;;;;;;;10250643;28;20471;-72
2023/08/21 14:01:54;;;;;;;6.68;6.10;;;;;;;;;;4190642;26;20041;-72
2023/08/21 14:12:25;;;;;;;8.90;6.15;;;;;;;;;;10380446;22;20092;-72
2023/08/21 14:17:24;;;;;;;6.30;5.70;;;;;;;;;;10255531;22;20057;-72
2023/08/21 14:22:21;;;;;;;6.75;6.15;;;;;;;;;;10257816;28;20053;-72
2023/08/21 14:27:17;;;;;;;6.85;6.32;;;;;;;;;;10268587;28;20502;-72
2023/08/21 14:32:13;;;;;;;6.60;6.00;;;;;;;;;;10260103;28;20048;-72
2023/08/21 14:42:21;;;;;;;6.47;5.88;;;;;;;;;;8373844;26;20090;-72
2023/08/21 14:47:18;;;;;;;6.10;5.50;;;;;;;;;;10283277;23;20069;-72
2023/08/21 14:52:14;;;;;;;6.60;6.00;;;;;;;;;;10254580;28;20145;-72
2023/08/21 14:57:10;;;;;;;7.70;6.90;;;;;;;;;;10253530;28;20107;-72
2023/08/21 15:02:07;;;;;;;7.35;6.65;;;;;;;;;;10246389;28;20045;-71
2023/08/21 15:07:04;;;;;;;6.38;5.78;;;;;;;;;;10260678;28;20045;-72
2023/08/21 15:12:00;;;;;;;6.05;5.50;;;;;;;;;;10247684;28;20099;-72
2023/08/21 15:16:57;;;;;;;7.22;5.40;;;;;;;;;;10256355;28;20107;-72
2023/08/21 15:22:13;;;;;;;5.88;5.38;;;;;;;;;;10249772;28;20051;-72
2023/08/21 15:27:09;;;;;;;6.18;5.55;;;;;;;;;;10255403;28;20414;-72
2023/08/21 15:32:05;;;;;;;6.35;5.75;;;;;;;;;;10259021;28;20049;-72
2023/08/21 15:37:02;;;;;;;6.35;5.75;;;;;;;;;;10258124;28;20502;-72
2023/08/21 15:41:58;;;;;;;5.95;5.45;;;;;;;;;;10254429;28;20128;-72
2023/08/21 15:52:07;;;;;;;5.47;5.07;;;;;;;;;;10257587;23;20383;-74
2023/08/21 16:07:54;;;;;;;6.18;5.57;;;;;;;;;;10234526;28;20045;-71
2023/08/21 16:12:53;;;;;;;6.90;5.65;;;;;;;;;;10228641;28;20391;-72
2023/08/21 16:17:50;;;;;;;6.15;5.60;;;;;;;;;;10213273;28;20107;-72
2023/08/21 16:22:48;;;;;;;7.57;6.25;;;;;;;;;;10223118;28;20801;-73
2023/08/21 16:32:56;;;;;;;;;;;;;;;;;;10278268;23;20057;-72
2023/08/21 16:42:57;;;;;;;7.80;7.00;;;;;;;;;;10269581;28;20049;-69
2023/08/21 16:47:53;;;;;;;6.55;6.05;;;;;;;;;;10265044;28;20530;-69
2023/08/21 16:52:50;;;;;;;8.50;6.47;;;;;;;;;;10253294;28;20555;-69
2023/08/21 16:57:46;;;;;;;7.15;6.28;;;;;;;;;;10251104;28;20132;-69
2023/08/21 17:02:42;;;;;;;6.70;6.10;;;;;;;;;;10264304;28;20041;-69
2023/08/21 17:07:39;;;;;;;6.90;5.82;;;;;;;;;;10252391;28;20048;-69
2023/08/21 17:12:36;;;;;;;7.03;5.63;;;;;;;;;;10260225;28;20045;-68
2023/08/21 17:17:33;;;;;;;5.93;5.40;;;;;;;;;;10257040;28;20045;-68
2023/08/21 17:22:30;;;;;;;6.95;6.35;;;;;;;;;;10256844;28;20110;-68
2023/08/21 17:27:26;;;;;;;6.38;5.50;;;;;;;;;;10256964;28;20669;-68
2023/08/21 17:32:22;;;;;;;8.50;5.50;;;;;;;;;;10260135;28;20071;-69
2023/08/21 17:37:19;;;;;;;5.95;5.40;;;;;;;;;;10354912;23;20487;-70
2023/08/21 17:42:15;;;;;;;6.45;5.85;;;;;;;;;;10272343;28;20502;-70
2023/08/21 17:52:23;;;;;;;5.45;4.95;;;;;;;;;;10264197;23;20045;-70
2023/08/21 17:57:52;;;;;;;;;;;;;;;;;;;;;
2023/08/21 18:02:55;;;;;;;7.25;5.45;;;;;;;;;;10255191;28;20072;-71
2023/08/21 18:07:52;;;;;;;7.60;5.63;;;;;;;;;;10258311;28;20045;-70
2023/08/21 18:12:48;;;;;;;7.28;4.97;;;;;;;;;;10245665;28;20488;-69
2023/08/21 18:17:45;;;;;;;5.68;4.93;;;;;;;;;;10251078;28;20053;-70
2023/08/21 18:22:41;;;;;;;7.25;4.93;;;;;;;;;;10255350;28;20057;-69
2023/08/21 18:27:37;;;;;;;5.00;4.50;;;;;;;;;;10252147;28;20450;-70
2023/08/21 18:32:34;;;;;;;9.52;4.95;;;;;;;;;;10245877;28;20057;-70
2023/08/21 18:37:30;;;;;;;5.05;4.60;;;;;;;;;;10257244;28;20037;-70
2023/08/21 18:42:27;;;;;;;6.43;5.25;;;;;;;;;;10252881;28;20131;-69
2023/08/21 18:47:25;;;;;;;6.80;5.40;;;;;;;;;;10253975;28;20099;-69
2023/08/21 18:52:25;;;;;;;;;;;;;;;;;;10252371;28;20088;-68
2023/08/21 18:57:21;;;;;;;8.65;6.13;;;;;;;;;;10254371;28;19964;-69
2023/08/21 19:02:18;;;;;;;7.40;5.55;;;;;;;;;;10241070;28;20083;-67
2023/08/21 19:07:14;;;;;;;8.52;5.70;;;;;;;;;;10253137;28;20485;-67
2023/08/21 19:12:10;;;;;;;8.00;6.07;;;;;;;;;;10246535;28;20102;-67
2023/08/21 19:17:07;;;;;;;8.07;6.45;;;;;;;;;;10238186;28;20120;-67
2023/08/21 19:22:03;;;;;;;7.63;6.72;;;;;;;;;;10236924;28;20084;-67
2023/08/21 19:26:59;;;;;;;6.82;6.10;;;;;;;;;;10251174;28;20041;-68
2023/08/21 19:31:56;;;;;;;8.63;6.95;;;;;;;;;;10257994;28;20106;-68
2023/08/21 19:36:52;;;;;;;9.32;6.93;;;;;;;;;;10250644;22;20784;-68
2023/08/21 19:41:50;;;;;;;8.82;6.57;;;;;;;;;;10244074;28;20083;-68
2023/08/21 19:46:47;;;;;;;14.40;7.25;;;;;;;;;;10230560;28;20521;-70
2023/08/21 19:51:43;;;;;;;9.05;6.80;;;;;;;;;;10255699;28;20052;-70
2023/08/21 19:56:40;;;;;;;8.65;6.82;;;;;;;;;;10243615;28;20083;-66
2023/08/21 20:01:37;;;;;;;7.28;6.57;;;;;;;;;;10234067;28;20053;-67
2023/08/21 20:06:50;;;;;;;7.40;6.57;;;;;;;;;;10274401;23;20049;-67
2023/08/21 20:12:18;;;;;;;9.05;6.60;;;;;;;;;;10112150;28;20611;-68
2023/08/21 20:17:18;;;;;;;10.75;7.68;;;;;;;;;;10148595;28;20050;-68
2023/08/21 20:22:14;;;;;;;7.20;6.50;;;;;;;;;;10173255;28;20046;-67
2023/08/21 20:27:11;;;;;;;9.52;7.40;;;;;;;;;;10171701;28;20046;-67
2023/08/21 20:32:07;;;;;;;8.98;7.47;;;;;;;;;;10167437;28;20105;-67
2023/08/21 20:37:04;;;;;;;9.75;7.30;;;;;;;;;;10172995;28;20046;-67
2023/08/21 20:42:02;;;;;;;10.30;8.00;;;;;;;;;;10171204;28;20050;-67
2023/08/21 20:46:58;;;;;;;8.48;7.45;;;;;;;;;;10203980;28;20102;-67
2023/08/21 20:51:55;;;;;;;10.63;7.55;;;;;;;;;;10254810;28;20048;-67
2023/08/21 20:56:51;;;;;;;9.98;8.05;;;;;;;;;;10248806;28;20056;-66
2023/08/21 21:01:47;;;;;;;8.70;7.30;;;;;;;;;;10257418;28;20412;-66
2023/08/21 21:06:43;;;;;;;10.45;7.80;;;;;;;;;;10265134;28;20073;-67
2023/08/21 21:11:40;;;;;;;11.18;7.88;;;;;;;;;;10266429;28;20067;-67
2023/08/21 21:16:36;;;;;;;8.60;7.60;;;;;;;;;;10270486;28;20048;-67
2023/08/21 21:21:36;;;;;;;10.40;7.78;;;;;;;;;;10264760;28;20098;-67
2023/08/21 21:26:32;;;;;;;8.93;7.90;;;;;;;;;;10261379;28;20095;-67
2023/08/21 21:31:29;;;;;;;8.68;7.78;;;;;;;;;;10262007;28;20131;-67
2023/08/21 21:36:25;;;;;;;8.88;7.97;;;;;;;;;;10258280;28;20060;-66
2023/08/21 21:41:21;;;;;;;13.70;7.68;;;;;;;;;;10267126;28;20098;-66
2023/08/21 21:46:23;;;;;;;9.38;7.72;;;;;;;;;;10262282;28;20077;-67
2023/08/21 21:51:19;;;;;;;;;;;;;;;;;;10263610;28;20061;-66
2023/08/21 21:56:16;;;;;;;11.02;8.73;;;;;;;;;;10254700;28;19955;-66
2023/08/21 22:01:12;;;;;;;10.80;8.25;;;;;;;;;;10262562;28;20457;-67
2023/08/21 22:06:09;;;;;;;13.02;8.02;;;;;;;;;;10264693;28;20041;-66
2023/08/21 22:11:05;;;;;;;12.05;7.68;;;;;;;;;;10258842;28;20125;-67
2023/08/21 22:16:02;;;;;;;12.57;8.90;;;;;;;;;;10260871;28;20045;-67
2023/08/21 22:20:58;;;;;;;11.05;8.48;;;;;;;;;;10260319;28;20518;-66
2023/08/21 22:25:54;;;;;;;10.50;8.45;;;;;;;;;;10268087;28;20091;-66
2023/08/21 22:30:51;;;;;;;10.15;8.15;;;;;;;;;;10265334;28;20067;-66
2023/08/21 22:35:47;;;;;;;9.07;8.18;;;;;;;;;;10261358;28;20430;-67
2023/08/21 22:40:43;;;;;;;12.45;8.05;;;;;;;;;;10266376;28;20044;-67
2023/08/21 22:45:40;;;;;;;12.30;7.28;;;;;;;;;;10258526;28;20048;-67
2023/08/21 22:50:38;;;;;;;9.18;7.47;;;;;;;;;;10255989;28;20565;-66
2023/08/21 22:55:36;;;;;;;11.20;7.93;;;;;;;;;;10256319;28;20507;-67
2023/08/21 23:00:32;;;;;;;9.20;6.90;;;;;;;;;;10260314;28;20055;-67
2023/08/21 23:05:28;;;;;;;7.55;6.78;;;;;;;;;;10259925;28;20053;-67
2023/08/21 23:10:25;;;;;;;7.53;6.43;;;;;;;;;;10252339;28;20049;-67
2023/08/21 23:15:21;;;;;;;8.82;6.93;;;;;;;;;;10255353;28;20053;-67
2023/08/21 23:20:17;;;;;;;8.45;7.10;;;;;;;;;;10262783;28;20044;-67
2023/08/21 23:25:14;;;;;;;6.43;5.82;;;;;;;;;;10259924;28;20053;-66
2023/08/21 23:30:11;;;;;;;7.57;5.70;;;;;;;;;;10259882;28;20712;-66
2023/08/21 23:35:07;;;;;;;6.72;6.03;;;;;;;;;;10254801;28;20088;-66
2023/08/21 23:40:06;;;;;;;6.60;5.93;;;;;;;;;;10256707;28;20072;-66
2023/08/21 23:45:02;;;;;;;7.07;6.35;;;;;;;;;;10258662;28;20084;-66
2023/08/21 23:49:59;;;;;;;8.80;6.50;;;;;;;;;;10264602;28;20122;-66
2023/08/21 23:54:55;;;;;;;6.47;5.78;;;;;;;;;;10251382;28;20052;-66
2023/08/21 23:59:51;;;;;;;9.30;6.05;;;;;;;;;;10257981;28;20056;-67
